Time;durP1;ratioP1;P1;durP2;ratioP2;P2;SDS_P1;SDS_P2;PMS_P1;PMS_P2;Temp;Humidity;BMP_temperature;BMP_pressure;BME280_temperature;BME280_humidity;BME280_pressure;Samples;Min_cycle;Max_cycle;Signal;HPM_P1;HPM_P2
2021/11/29 00:00:37;;;;;;;11.57;6.63;;;;;;;;;;5073382;28;20304;-70
2021/11/29 00:03:05;;;;;;;11.50;5.90;;;;;;;;;;5072833;28;20212;-70
2021/11/29 00:05:32;;;;;;;8.97;5.87;;;;;;;;;;5071935;28;20343;-71
2021/11/29 00:08:00;;;;;;;7.23;4.70;;;;;;;;;;5053302;28;20201;-71
2021/11/29 00:10:27;;;;;;;10.20;6.07;;;;;;;;;;5058278;28;20663;-71
2021/11/29 00:12:53;;;;;;;9.97;5.67;;;;;;;;;;5072386;28;20201;-72
2021/11/29 00:15:21;;;;;;;10.33;6.07;;;;;;;;;;5072008;28;20206;-71
2021/11/29 00:17:47;;;;;;;10.23;5.73;;;;;;;;;;5073279;28;20201;-71
2021/11/29 00:20:15;;;;;;;10.53;5.73;;;;;;;;;;5071891;28;20215;-70
2021/11/29 00:22:41;;;;;;;11.27;6.50;;;;;;;;;;5072265;28;20211;-71
2021/11/29 00:25:08;;;;;;;8.63;5.23;;;;;;;;;;5072858;28;20307;-71
2021/11/29 00:27:36;;;;;;;10.27;6.03;;;;;;;;;;5072616;28;20205;-71
2021/11/29 00:30:04;;;;;;;12.17;6.03;;;;;;;;;;5072563;28;20696;-73
2021/11/29 00:32:30;;;;;;;12.93;6.53;;;;;;;;;;5072137;28;20227;-70
2021/11/29 00:34:57;;;;;;;10.27;5.70;;;;;;;;;;5072410;28;20229;-71
2021/11/29 00:37:24;;;;;;;10.07;6.87;;;;;;;;;;5072535;28;20212;-70
2021/11/29 00:39:51;;;;;;;13.40;6.77;;;;;;;;;;5072636;28;20201;-71
2021/11/29 00:42:18;;;;;;;11.07;6.47;;;;;;;;;;5071803;28;20666;-71
2021/11/29 00:44:44;;;;;;;10.50;5.73;;;;;;;;;;5071343;28;20320;-71
2021/11/29 00:47:11;;;;;;;8.53;5.60;;;;;;;;;;5071373;28;20608;-72
2021/11/29 00:49:37;;;;;;;9.83;5.90;;;;;;;;;;5072291;28;20745;-71
2021/11/29 00:52:04;;;;;;;10.13;6.60;;;;;;;;;;5072196;28;20598;-72
2021/11/29 00:54:30;;;;;;;8.77;5.83;;;;;;;;;;5071572;28;20243;-72
2021/11/29 00:56:56;;;;;;;10.73;5.60;;;;;;;;;;5072154;28;20201;-70
2021/11/29 00:59:23;;;;;;;9.63;5.53;;;;;;;;;;5072263;28;20662;-72
2021/11/29 01:35:54;;;;;;;11.80;6.47;;;;;;;;;;5089147;28;20356;-73
2021/11/29 01:38:21;;;;;;;12.50;6.77;;;;;;;;;;5089301;28;20231;-73
2021/11/29 01:40:47;;;;;;;12.70;7.40;;;;;;;;;;5089153;28;20201;-72
2021/11/29 01:43:15;;;;;;;11.93;7.70;;;;;;;;;;5088416;28;20679;-71
2021/11/29 01:45:43;;;;;;;12.07;7.13;;;;;;;;;;5089227;28;20224;-72
2021/11/29 01:48:09;;;;;;;11.27;7.07;;;;;;;;;;5089135;28;20258;-72
2021/11/29 01:50:37;;;;;;;13.17;7.83;;;;;;;;;;5087888;28;20292;-72
2021/11/29 01:53:05;;;;;;;11.60;7.17;;;;;;;;;;5088106;28;20202;-72
2021/11/29 01:55:31;;;;;;;13.60;7.37;;;;;;;;;;5089176;28;20224;-72
2021/11/29 01:57:58;;;;;;;12.37;6.90;;;;;;;;;;5088940;28;20752;-72
2021/11/29 02:00:26;;;;;;;12.20;7.53;;;;;;;;;;5087778;28;20287;-72
2021/11/29 02:02:53;;;;;;;13.63;7.60;;;;;;;;;;5088219;28;20295;-71
2021/11/29 02:05:21;;;;;;;14.53;7.27;;;;;;;;;;5088812;28;20204;-72
2021/11/29 02:07:47;;;;;;;11.00;7.07;;;;;;;;;;5068287;28;20240;-72
2021/11/29 02:10:14;;;;;;;11.53;6.73;;;;;;;;;;5073297;28;20200;-72
2021/11/29 02:12:41;;;;;;;12.80;6.43;;;;;;;;;;5088045;28;20295;-71
2021/11/29 02:15:09;;;;;;;11.40;6.80;;;;;;;;;;5087352;28;20234;-72
2021/11/29 02:17:36;;;;;;;10.87;6.80;;;;;;;;;;5088507;28;20370;-73
2021/11/29 02:20:03;;;;;;;11.90;7.60;;;;;;;;;;5088414;28;20243;-71
2021/11/29 02:22:30;;;;;;;15.27;7.07;;;;;;;;;;5087733;28;20299;-73
2021/11/29 02:24:57;;;;;;;11.10;6.60;;;;;;;;;;5088534;28;20248;-72
2021/11/29 02:27:23;;;;;;;11.80;7.07;;;;;;;;;;5088570;28;20295;-71
2021/11/29 02:29:51;;;;;;;13.57;7.33;;;;;;;;;;5088473;28;20239;-72
2021/11/29 02:32:17;;;;;;;11.47;7.10;;;;;;;;;;5087801;28;20232;-72
2021/11/29 02:34:43;;;;;;;12.83;7.20;;;;;;;;;;5087751;28;20232;-72
2021/11/29 02:37:10;;;;;;;15.50;7.57;;;;;;;;;;5088358;28;20291;-72
2021/11/29 02:39:37;;;;;;;10.40;6.30;;;;;;;;;;5088519;28;20311;-72
2021/11/29 02:42:07;;;;;;;13.03;6.83;;;;;;;;;;5088258;28;20283;-72
2021/11/29 02:44:34;;;;;;;12.37;7.17;;;;;;;;;;5087524;28;20320;-72
2021/11/29 02:47:00;;;;;;;13.03;7.57;;;;;;;;;;5075987;28;20768;-71
2021/11/29 02:49:27;;;;;;;12.73;6.97;;;;;;;;;;5074313;28;20212;-71
2021/11/29 02:51:55;;;;;;;14.67;7.43;;;;;;;;;;5074786;28;20205;-72
2021/11/29 02:54:26;;;;;;;15.10;7.77;;;;;;;;;;5073807;28;20225;-71
2021/11/29 02:56:54;;;;;;;12.20;7.57;;;;;;;;;;5073244;28;20203;-72
2021/11/29 02:59:22;;;;;;;10.80;7.10;;;;;;;;;;5074342;28;20288;-73
2021/11/29 03:01:50;;;;;;;15.20;7.70;;;;;;;;;;5074082;28;20658;-71
2021/11/29 03:04:23;;;;;;;13.67;7.47;;;;;;;;;;5073628;28;20279;-71
2021/11/29 03:06:50;;;;;;;15.33;7.30;;;;;;;;;;5074240;28;20638;-71
2021/11/29 03:09:17;;;;;;;15.03;7.13;;;;;;;;;;5074084;28;20748;-73
2021/11/29 03:11:44;;;;;;;11.77;7.13;;;;;;;;;;5074055;28;20267;-71
2021/11/29 03:14:10;;;;;;;16.53;7.20;;;;;;;;;;5073182;28;22211;-71
2021/11/29 03:16:37;;;;;;;13.23;7.77;;;;;;;;;;5073883;28;20565;-71
2021/11/29 03:19:03;;;;;;;12.87;7.10;;;;;;;;;;5074236;28;20296;-72
2021/11/29 03:21:30;;;;;;;12.57;7.13;;;;;;;;;;5073819;28;20670;-70
2021/11/29 03:23:59;;;;;;;13.53;7.50;;;;;;;;;;5071992;28;20308;-70
2021/11/29 03:26:25;;;;;;;16.07;8.30;;;;;;;;;;5072801;28;20197;-70
2021/11/29 03:28:53;;;;;;;14.17;7.40;;;;;;;;;;5073687;28;20792;-70
2021/11/29 03:31:20;;;;;;;13.57;7.37;;;;;;;;;;5074005;28;20293;-70
2021/11/29 03:33:48;;;;;;;12.67;7.53;;;;;;;;;;5071610;28;20647;-71
2021/11/29 03:36:15;;;;;;;12.70;6.83;;;;;;;;;;5073621;28;20221;-73
2021/11/29 03:38:42;;;;;;;14.37;8.00;;;;;;;;;;5073663;28;20231;-72
2021/11/29 03:41:11;;;;;;;14.77;7.47;;;;;;;;;;5073498;28;20290;-72
2021/11/29 03:43:38;;;;;;;12.27;7.53;;;;;;;;;;5072555;28;20221;-72
2021/11/29 03:46:05;;;;;;;12.43;6.93;;;;;;;;;;5073406;28;20204;-73
2021/11/29 03:48:33;;;;;;;16.13;7.40;;;;;;;;;;5073620;28;20238;-72
2021/11/29 03:50:59;;;;;;;12.20;6.67;;;;;;;;;;5071995;28;20662;-72
2021/11/29 03:53:26;;;;;;;13.23;7.43;;;;;;;;;;5072708;28;20229;-72
2021/11/29 03:55:52;;;;;;;12.47;6.80;;;;;;;;;;5073233;28;20239;-72
2021/11/29 03:58:18;;;;;;;13.37;7.10;;;;;;;;;;5072079;28;20297;-73
2021/11/29 04:00:45;;;;;;;11.77;6.97;;;;;;;;;;5073177;28;20297;-72
2021/11/29 04:03:11;;;;;;;13.27;7.10;;;;;;;;;;5072217;28;20557;-72
2021/11/29 04:05:38;;;;;;;10.97;6.83;;;;;;;;;;5071837;28;20205;-72
2021/11/29 04:08:04;;;;;;;13.77;7.17;;;;;;;;;;5073103;28;20233;-72
2021/11/29 04:10:31;;;;;;;13.40;6.20;;;;;;;;;;5071586;28;20235;-72
2021/11/29 04:12:57;;;;;;;18.17;8.03;;;;;;;;;;5072267;28;20255;-72
2021/11/29 04:15:23;;;;;;;14.83;6.77;;;;;;;;;;5071828;28;20225;-72
2021/11/29 04:17:50;;;;;;;13.07;7.67;;;;;;;;;;5072988;28;20209;-72
2021/11/29 04:20:17;;;;;;;11.57;7.23;;;;;;;;;;5072917;28;20260;-72
2021/11/29 04:22:45;;;;;;;11.33;7.17;;;;;;;;;;5070821;28;20300;-72
2021/11/29 04:25:13;;;;;;;12.27;7.27;;;;;;;;;;5072560;28;20225;-72
2021/11/29 04:27:42;;;;;;;12.33;7.27;;;;;;;;;;5072659;28;20215;-72
2021/11/29 04:30:14;;;;;;;13.73;7.63;;;;;;;;;;5072581;28;20684;-72
2021/11/29 04:32:40;;;;;;;13.20;7.10;;;;;;;;;;5071793;28;20215;-72
2021/11/29 04:35:07;;;;;;;14.97;7.90;;;;;;;;;;5072427;28;20241;-72
2021/11/29 04:37:33;;;;;;;13.33;7.17;;;;;;;;;;5072594;28;20295;-72
2021/11/29 04:40:00;;;;;;;12.73;7.43;;;;;;;;;;5071469;28;20293;-72
2021/11/29 04:42:26;;;;;;;12.83;7.87;;;;;;;;;;5071847;28;20205;-72
2021/11/29 04:44:53;;;;;;;10.77;6.90;;;;;;;;;;5072403;28;20257;-72
2021/11/29 04:47:19;;;;;;;12.13;7.27;;;;;;;;;;5072309;28;20211;-72
2021/11/29 04:49:45;;;;;;;14.13;7.63;;;;;;;;;;5072375;28;20288;-72
2021/11/29 04:52:12;;;;;;;12.73;7.27;;;;;;;;;;5071601;28;20685;-72
2021/11/29 04:54:38;;;;;;;15.23;8.30;;;;;;;;;;5071728;28;20820;-72
2021/11/29 04:57:05;;;;;;;13.70;8.13;;;;;;;;;;5072290;28;20303;-72
2021/11/29 04:59:31;;;;;;;14.97;8.20;;;;;;;;;;5072219;28;20241;-71
2021/11/29 05:02:00;;;;;;;12.20;7.47;;;;;;;;;;5072038;28;20588;-71
2021/11/29 05:04:26;;;;;;;13.73;8.00;;;;;;;;;;5071238;28;20763;-72
2021/11/29 05:06:53;;;;;;;14.17;8.10;;;;;;;;;;5071728;28;20204;-71
2021/11/29 05:09:20;;;;;;;14.03;8.27;;;;;;;;;;5070774;28;20622;-71
2021/11/29 05:11:46;;;;;;;15.53;8.53;;;;;;;;;;5072004;28;20288;-71
2021/11/29 05:14:13;;;;;;;11.43;7.27;;;;;;;;;;5071348;28;20255;-72
2021/11/29 05:16:41;;;;;;;14.97;8.60;;;;;;;;;;5072109;28;20313;-72
2021/11/29 05:19:08;;;;;;;14.93;7.97;;;;;;;;;;5070704;28;20646;-72
2021/11/29 05:21:34;;;;;;;15.23;9.10;;;;;;;;;;5070756;28;20200;-71
2021/11/29 05:24:01;;;;;;;17.27;9.40;;;;;;;;;;5071032;28;20745;-71
2021/11/29 05:26:28;;;;;;;12.47;7.80;;;;;;;;;;5071863;28;20212;-71
2021/11/29 05:28:56;;;;;;;18.10;9.10;;;;;;;;;;5072183;28;20772;-71
2021/11/29 05:31:23;;;;;;;14.87;7.50;;;;;;;;;;5071717;28;20304;-73
2021/11/29 05:33:52;;;;;;;14.63;8.03;;;;;;;;;;5070720;28;20233;-73
2021/11/29 05:36:18;;;;;;;11.37;6.87;;;;;;;;;;5071792;28;20228;-70
2021/11/29 05:38:45;;;;;;;16.20;8.70;;;;;;;;;;5071682;28;20196;-72
2021/11/29 05:41:12;;;;;;;18.30;8.13;;;;;;;;;;5071579;28;20292;-72
2021/11/29 05:43:38;;;;;;;17.70;8.40;;;;;;;;;;5071126;28;20893;-72
2021/11/29 05:46:05;;;;;;;14.43;8.67;;;;;;;;;;5071769;28;20236;-73
2021/11/29 05:48:31;;;;;;;14.17;8.17;;;;;;;;;;5071529;28;20324;-72
2021/11/29 05:50:58;;;;;;;16.30;9.17;;;;;;;;;;5071635;28;20209;-72
2021/11/29 05:53:25;;;;;;;15.23;9.40;;;;;;;;;;5070741;28;20328;-71
2021/11/29 05:55:52;;;;;;;16.70;8.27;;;;;;;;;;5071319;28;20311;-71
2021/11/29 05:58:18;;;;;;;17.93;8.90;;;;;;;;;;5071473;28;20200;-72
2021/11/29 06:00:45;;;;;;;14.70;7.80;;;;;;;;;;5071471;28;20201;-72
2021/11/29 06:03:12;;;;;;;13.20;8.33;;;;;;;;;;5070631;28;20212;-72
2021/11/29 06:05:38;;;;;;;13.10;7.70;;;;;;;;;;5071650;28;20237;-72
2021/11/29 06:08:04;;;;;;;15.60;7.23;;;;;;;;;;5071482;28;20299;-72
2021/11/29 06:10:31;;;;;;;15.40;8.90;;;;;;;;;;5071251;28;20292;-72
2021/11/29 06:12:58;;;;;;;12.93;7.40;;;;;;;;;;5070793;28;20300;-72
2021/11/29 06:15:25;;;;;;;11.83;7.07;;;;;;;;;;5053314;28;20595;-72
2021/11/29 06:17:52;;;;;;;13.63;7.80;;;;;;;;;;5053502;28;20680;-72
2021/11/29 06:20:30;;;;;;;13.23;7.73;;;;;;;;;;5071238;28;20207;-72
2021/11/29 06:23:00;;;;;;;14.23;7.37;;;;;;;;;;5074237;28;20205;-72
2021/11/29 06:25:27;;;;;;;11.47;7.20;;;;;;;;;;5073769;28;20225;-72
2021/11/29 06:27:55;;;;;;;12.70;7.77;;;;;;;;;;5075065;28;20658;-72
2021/11/29 06:30:23;;;;;;;13.70;7.60;;;;;;;;;;5057489;28;20259;-72
2021/11/29 06:32:50;;;;;;;14.63;7.83;;;;;;;;;;5074508;28;20205;-72
2021/11/29 06:35:23;;;;;;;13.47;7.83;;;;;;;;;;5074605;28;20217;-72
2021/11/29 06:37:55;;;;;;;15.00;6.93;;;;;;;;;;5075131;28;20210;-72
2021/11/29 06:40:29;;;;;;;14.50;8.40;;;;;;;;;;5074949;28;20212;-72
2021/11/29 06:42:56;;;;;;;18.80;8.93;;;;;;;;;;5073944;28;20328;-72
2021/11/29 06:45:22;;;;;;;12.10;7.27;;;;;;;;;;5074912;28;20585;-72
2021/11/29 06:47:49;;;;;;;14.30;7.83;;;;;;;;;;5074761;28;20678;-72
2021/11/29 06:50:16;;;;;;;12.57;8.00;;;;;;;;;;5074756;28;20198;-72
2021/11/29 06:52:43;;;;;;;13.80;8.40;;;;;;;;;;5073761;28;20236;-72
2021/11/29 06:55:19;;;;;;;12.00;6.67;;;;;;;;;;5073139;28;20229;-72
2021/11/29 06:57:49;;;;;;;15.50;7.97;;;;;;;;;;5074639;28;20254;-72
2021/11/29 07:00:19;;;;;;;14.87;7.63;;;;;;;;;;5074546;28;20255;-72
2021/11/29 07:02:46;;;;;;;14.53;7.57;;;;;;;;;;5072574;28;20232;-72
2021/11/29 07:05:16;;;;;;;11.77;6.67;;;;;;;;;;5074225;28;20233;-72
2021/11/29 07:07:44;;;;;;;13.27;6.80;;;;;;;;;;5074312;28;20231;-72
2021/11/29 07:10:11;;;;;;;15.23;7.47;;;;;;;;;;5072897;28;20733;-72
2021/11/29 07:12:43;;;;;;;13.53;6.97;;;;;;;;;;5073784;28;20373;-72
2021/11/29 07:15:11;;;;;;;17.33;8.03;;;;;;;;;;5072956;28;20253;-72
2021/11/29 07:17:37;;;;;;;14.07;7.23;;;;;;;;;;5073951;28;20612;-72
2021/11/29 07:20:05;;;;;;;13.17;7.57;;;;;;;;;;5073933;28;20233;-73
2021/11/29 07:22:32;;;;;;;12.93;7.40;;;;;;;;;;5071742;28;20822;-73
2021/11/29 07:25:02;;;;;;;13.53;7.30;;;;;;;;;;5073553;28;20276;-73
2021/11/29 07:27:29;;;;;;;13.23;7.73;;;;;;;;;;5072464;28;20571;-73
2021/11/29 07:29:56;;;;;;;13.93;7.60;;;;;;;;;;5073834;28;20620;-73
2021/11/29 07:32:22;;;;;;;12.63;6.87;;;;;;;;;;5073186;28;20288;-71
2021/11/29 07:34:50;;;;;;;12.60;7.17;;;;;;;;;;5073423;28;20320;-72
2021/11/29 07:37:17;;;;;;;15.00;7.67;;;;;;;;;;5072895;28;20284;-73
2021/11/29 07:39:44;;;;;;;14.83;7.20;;;;;;;;;;5073534;28;20663;-72
2021/11/29 07:42:11;;;;;;;11.80;6.60;;;;;;;;;;5073289;28;20688;-71
2021/11/29 07:44:38;;;;;;;11.70;7.50;;;;;;;;;;5072172;28;20804;-71
2021/11/29 07:47:05;;;;;;;12.53;7.33;;;;;;;;;;5073547;28;20248;-71
2021/11/29 07:49:31;;;;;;;15.43;7.43;;;;;;;;;;5073802;28;20294;-71
2021/11/29 07:52:00;;;;;;;12.83;7.80;;;;;;;;;;5073673;28;20574;-72
2021/11/29 07:54:31;;;;;;;12.20;6.90;;;;;;;;;;5072667;28;20221;-72
2021/11/29 07:56:57;;;;;;;12.67;7.40;;;;;;;;;;5073458;28;20304;-71
2021/11/29 07:59:24;;;;;;;11.40;6.67;;;;;;;;;;5073561;28;20236;-73
2021/11/29 08:02:12;;;;;;;12.80;7.67;;;;;;;;;;5073533;28;20215;-73
2021/11/29 08:04:39;;;;;;;10.33;6.43;;;;;;;;;;5073247;28;20229;-73
2021/11/29 08:07:05;;;;;;;11.87;6.60;;;;;;;;;;5073075;28;20253;-73
2021/11/29 08:09:32;;;;;;;11.93;6.10;;;;;;;;;;5071998;28;20697;-71
2021/11/29 08:11:59;;;;;;;12.33;7.00;;;;;;;;;;5071924;28;20255;-72
2021/11/29 08:14:28;;;;;;;8.30;5.53;;;;;;;;;;5072479;28;20278;-72
2021/11/29 08:16:55;;;;;;;8.60;4.90;;;;;;;;;;5073261;28;20296;-72
2021/11/29 08:19:21;;;;;;;12.60;6.00;;;;;;;;;;5073449;28;20304;-73
2021/11/29 08:21:50;;;;;;;11.00;6.40;;;;;;;;;;5073102;28;20209;-72
2021/11/29 08:24:17;;;;;;;8.73;5.57;;;;;;;;;;5070396;28;20316;-72
2021/11/29 08:26:43;;;;;;;8.17;5.50;;;;;;;;;;5072444;28;20656;-73
2021/11/29 08:29:10;;;;;;;11.60;6.23;;;;;;;;;;5072709;28;20209;-73
2021/11/29 08:31:36;;;;;;;9.77;5.53;;;;;;;;;;5072639;28;20268;-71
2021/11/29 08:34:03;;;;;;;12.40;5.77;;;;;;;;;;5071735;28;20253;-71
2021/11/29 08:36:29;;;;;;;8.63;5.60;;;;;;;;;;5072297;28;20701;-71
2021/11/29 08:38:56;;;;;;;9.63;5.00;;;;;;;;;;5072213;28;20665;-71
2021/11/29 08:41:22;;;;;;;10.60;5.87;;;;;;;;;;5072266;28;20209;-71
2021/11/29 08:43:49;;;;;;;11.00;6.00;;;;;;;;;;5070819;28;20232;-71
2021/11/29 08:46:15;;;;;;;8.47;5.40;;;;;;;;;;5072244;28;20231;-71
2021/11/29 08:48:42;;;;;;;8.20;5.33;;;;;;;;;;5072322;28;20691;-71
2021/11/29 08:51:08;;;;;;;8.13;5.30;;;;;;;;;;5072520;28;20288;-73
2021/11/29 08:53:38;;;;;;;8.83;5.67;;;;;;;;;;5071762;28;20231;-73
2021/11/29 08:56:04;;;;;;;9.23;5.90;;;;;;;;;;5072329;28;20232;-72
2021/11/29 08:58:31;;;;;;;10.00;6.57;;;;;;;;;;5072179;28;20205;-73
2021/11/29 09:00:58;;;;;;;8.17;5.23;;;;;;;;;;5071936;28;20224;-71
2021/11/29 09:03:25;;;;;;;12.23;6.33;;;;;;;;;;5071069;28;20224;-71
2021/11/29 09:05:51;;;;;;;12.63;7.03;;;;;;;;;;5071366;28;20717;-72
2021/11/29 09:08:18;;;;;;;8.10;5.03;;;;;;;;;;5071317;28;20315;-72
2021/11/29 09:10:45;;;;;;;14.03;7.17;;;;;;;;;;5071685;28;20702;-72
2021/11/29 09:13:32;;;;;;;10.90;6.73;;;;;;;;;;5071249;28;20248;-72
2021/11/29 09:16:00;;;;;;;10.80;6.30;;;;;;;;;;5072090;28;20232;-72
2021/11/29 09:18:28;;;;;;;10.90;6.77;;;;;;;;;;5071894;28;20246;-72
2021/11/29 09:20:54;;;;;;;9.03;5.83;;;;;;;;;;5071576;28;20251;-72
2021/11/29 09:23:21;;;;;;;11.73;6.70;;;;;;;;;;5069735;28;20317;-72
2021/11/29 09:25:48;;;;;;;11.20;6.70;;;;;;;;;;5071588;28;20725;-72
2021/11/29 09:28:14;;;;;;;14.07;6.43;;;;;;;;;;5071987;28;20197;-72
2021/11/29 09:30:41;;;;;;;10.07;6.07;;;;;;;;;;5071758;28;20291;-72
2021/11/29 09:33:08;;;;;;;10.90;6.33;;;;;;;;;;5071098;28;20216;-72
2021/11/29 09:35:35;;;;;;;11.83;6.37;;;;;;;;;;5071341;28;20233;-72
2021/11/29 09:38:02;;;;;;;11.90;7.17;;;;;;;;;;5072040;28;20209;-71
2021/11/29 09:40:33;;;;;;;11.43;6.43;;;;;;;;;;5071766;28;20205;-72
2021/11/29 09:43:00;;;;;;;10.80;6.03;;;;;;;;;;5070934;28;20223;-71
2021/11/29 09:45:27;;;;;;;11.83;6.60;;;;;;;;;;5071630;28;20284;-72
2021/11/29 09:47:55;;;;;;;9.87;6.27;;;;;;;;;;5071396;28;20677;-72
2021/11/29 09:50:21;;;;;;;11.30;6.73;;;;;;;;;;5070143;28;20360;-72
2021/11/29 09:52:48;;;;;;;11.13;6.33;;;;;;;;;;5070646;28;20638;-71
2021/11/29 09:55:16;;;;;;;9.80;6.13;;;;;;;;;;5071292;28;20668;-71
2021/11/29 09:57:43;;;;;;;11.77;6.70;;;;;;;;;;5075118;28;20673;-71
2021/11/29 10:00:11;;;;;;;10.60;6.43;;;;;;;;;;5075287;28;20240;-72
2021/11/29 10:02:37;;;;;;;8.83;5.43;;;;;;;;;;5074694;28;20309;-71
2021/11/29 10:05:04;;;;;;;12.07;6.23;;;;;;;;;;5075222;28;20256;-72
2021/11/29 10:07:36;;;;;;;9.27;5.83;;;;;;;;;;5075120;28;20248;-71
2021/11/29 10:10:16;;;;;;;8.77;5.37;;;;;;;;;;5075058;28;20194;-71
2021/11/29 10:12:43;;;;;;;12.30;6.50;;;;;;;;;;5074544;28;20299;-72
2021/11/29 10:15:24;;;;;;;12.13;5.83;;;;;;;;;;5073639;28;20676;-72
2021/11/29 10:17:52;;;;;;;8.40;5.57;;;;;;;;;;5075152;28;20205;-71
2021/11/29 10:20:43;;;;;;;9.00;5.40;;;;;;;;;;5074868;28;20693;-71
2021/11/29 10:23:11;;;;;;;13.10;6.10;;;;;;;;;;5074305;28;20204;-72
2021/11/29 10:25:41;;;;;;;10.13;5.63;;;;;;;;;;5075020;28;20293;-71
2021/11/29 10:28:20;;;;;;;10.63;5.97;;;;;;;;;;5074899;28;20595;-71
2021/11/29 10:31:02;;;;;;;14.30;6.90;;;;;;;;;;5075365;28;20284;-71
2021/11/29 10:33:29;;;;;;;11.13;6.13;;;;;;;;;;5073930;28;20589;-73
2021/11/29 10:36:06;;;;;;;9.77;5.57;;;;;;;;;;5074763;28;20228;-71
2021/11/29 10:38:33;;;;;;;9.07;5.37;;;;;;;;;;5074961;28;20287;-72
2021/11/29 10:40:59;;;;;;;11.27;6.33;;;;;;;;;;5074738;28;20677;-72
2021/11/29 10:43:39;;;;;;;7.80;4.80;;;;;;;;;;5074102;28;20312;-72
2021/11/29 10:46:17;;;;;;;8.67;4.90;;;;;;;;;;5074507;28;20292;-71
2021/11/29 10:48:44;;;;;;;12.20;5.57;;;;;;;;;;5074477;28;20700;-71
2021/11/29 10:51:12;;;;;;;9.47;5.57;;;;;;;;;;5074454;28;20301;-72
2021/11/29 10:53:48;;;;;;;9.40;5.60;;;;;;;;;;5074202;28;20267;-71
2021/11/29 10:56:18;;;;;;;9.27;5.20;;;;;;;;;;5074460;28;20205;-72
2021/11/29 10:58:46;;;;;;;8.23;4.80;;;;;;;;;;5072972;28;20209;-71
2021/11/29 11:01:14;;;;;;;7.90;5.43;;;;;;;;;;5074002;28;20240;-72
2021/11/29 11:03:48;;;;;;;8.27;5.17;;;;;;;;;;5073263;28;20229;-72
2021/11/29 11:06:14;;;;;;;8.33;4.63;;;;;;;;;;5073851;28;20220;-71
2021/11/29 11:08:41;;;;;;;6.97;4.50;;;;;;;;;;5073750;28;20799;-72
2021/11/29 11:11:26;;;;;;;9.07;4.47;;;;;;;;;;5073904;28;20201;-71
2021/11/29 11:13:56;;;;;;;10.00;4.63;;;;;;;;;;5073330;28;20221;-71
2021/11/29 11:16:41;;;;;;;7.67;4.67;;;;;;;;;;5073902;28;20304;-71
2021/11/29 11:19:22;;;;;;;8.87;4.57;;;;;;;;;;5074102;28;20254;-71
2021/11/29 11:21:48;;;;;;;7.47;4.63;;;;;;;;;;5073723;28;20212;-71
2021/11/29 11:24:44;;;;;;;8.17;4.53;;;;;;;;;;5073090;28;20231;-71
2021/11/29 11:27:10;;;;;;;6.63;4.53;;;;;;;;;;5064932;28;20316;-71
2021/11/29 11:29:40;;;;;;;7.63;3.97;;;;;;;;;;5073619;28;20232;-71
2021/11/29 11:32:09;;;;;;;8.00;4.30;;;;;;;;;;5073389;28;20232;-72
2021/11/29 11:34:37;;;;;;;10.17;4.57;;;;;;;;;;5072683;28;20717;-71
2021/11/29 11:37:03;;;;;;;6.77;4.00;;;;;;;;;;5072470;28;20205;-72
2021/11/29 11:39:30;;;;;;;6.97;3.90;;;;;;;;;;5073602;28;20296;-71
2021/11/29 11:41:58;;;;;;;5.90;3.63;;;;;;;;;;5072532;28;20233;-71
2021/11/29 11:44:25;;;;;;;6.57;3.13;;;;;;;;;;5072831;28;20347;-72
2021/11/29 11:46:51;;;;;;;5.70;3.50;;;;;;;;;;5073061;28;20225;-71
2021/11/29 11:49:18;;;;;;;6.83;3.20;;;;;;;;;;5073317;28;20201;-71
2021/11/29 11:51:44;;;;;;;7.50;3.77;;;;;;;;;;5073151;28;20292;-71
2021/11/29 11:54:11;;;;;;;8.30;3.90;;;;;;;;;;5072117;28;20709;-72
2021/11/29 11:56:37;;;;;;;6.00;3.60;;;;;;;;;;5072878;28;20216;-72
2021/11/29 11:59:13;;;;;;;5.57;3.40;;;;;;;;;;5072864;28;20296;-72
2021/11/29 12:01:44;;;;;;;6.87;3.27;;;;;;;;;;5072689;28;20291;-71
2021/11/29 12:04:15;;;;;;;6.47;3.60;;;;;;;;;;5072028;28;20790;-71
2021/11/29 12:06:45;;;;;;;5.00;3.07;;;;;;;;;;5072624;28;20764;-72
2021/11/29 12:09:13;;;;;;;6.17;3.07;;;;;;;;;;5072890;28;20628;-71
2021/11/29 12:11:42;;;;;;;6.47;3.40;;;;;;;;;;5072726;28;20662;-72
2021/11/29 12:14:11;;;;;;;5.50;3.10;;;;;;;;;;5072114;28;20232;-72
2021/11/29 12:16:43;;;;;;;6.57;3.20;;;;;;;;;;5072894;28;20248;-71
2021/11/29 12:19:14;;;;;;;5.33;3.23;;;;;;;;;;5071954;28;20278;-71
2021/11/29 12:21:42;;;;;;;8.13;3.57;;;;;;;;;;5072256;28;20205;-71
2021/11/29 12:24:13;;;;;;;5.67;3.40;;;;;;;;;;5071662;28;20221;-71
2021/11/29 12:26:45;;;;;;;6.90;3.37;;;;;;;;;;5072480;28;20313;-71
2021/11/29 12:29:21;;;;;;;6.00;2.77;;;;;;;;;;5072120;28;20292;-71
2021/11/29 12:31:51;;;;;;;5.40;3.27;;;;;;;;;;5072321;28;20249;-72
2021/11/29 12:34:36;;;;;;;5.63;3.00;;;;;;;;;;5071494;28;20229;-71
2021/11/29 12:37:02;;;;;;;10.53;3.27;;;;;;;;;;5072094;28;20248;-72
2021/11/29 12:39:41;;;;;;;5.90;3.43;;;;;;;;;;5070771;28;20219;-71
2021/11/29 12:42:23;;;;;;;7.20;2.67;;;;;;;;;;5072034;28;20705;-71
2021/11/29 12:44:50;;;;;;;4.27;2.67;;;;;;;;;;5071927;28;20320;-71
2021/11/29 12:47:31;;;;;;;4.37;2.27;;;;;;;;;;5071785;28;20270;-71
2021/11/29 12:50:05;;;;;;;5.87;2.37;;;;;;;;;;5071937;28;20204;-71
2021/11/29 12:52:35;;;;;;;6.17;2.50;;;;;;;;;;5071125;28;20240;-71
2021/11/29 12:55:04;;;;;;;4.47;2.53;;;;;;;;;;5071727;28;20337;-72
2021/11/29 12:57:33;;;;;;;5.83;3.00;;;;;;;;;;5071722;28;20292;-71
2021/11/29 13:00:08;;;;;;;4.83;2.00;;;;;;;;;;5071966;28;20240;-71
2021/11/29 13:02:39;;;;;;;2.53;1.70;;;;;;;;;;5071284;28;20200;-71
2021/11/29 13:05:27;;;;;;;4.73;2.27;;;;;;;;;;5071819;28;20284;-71
2021/11/29 13:08:06;;;;;;;9.07;2.60;;;;;;;;;;5051568;28;20304;-71
2021/11/29 13:10:44;;;;;;;4.17;2.23;;;;;;;;;;5059204;28;20193;-71
2021/11/29 13:13:29;;;;;;;3.53;2.07;;;;;;;;;;5069880;28;20637;-71
2021/11/29 13:16:03;;;;;;;5.30;2.07;;;;;;;;;;5071465;28;20686;-71
2021/11/29 13:18:52;;;;;;;6.00;2.17;;;;;;;;;;5072249;28;20544;-71
2021/11/29 13:21:20;;;;;;;6.57;2.50;;;;;;;;;;5071894;28;20240;-71
2021/11/29 13:23:48;;;;;;;5.60;2.67;;;;;;;;;;5071224;28;20229;-71
2021/11/29 13:26:14;;;;;;;3.10;2.03;;;;;;;;;;5071652;28;20233;-71
2021/11/29 13:28:48;;;;;;;7.37;2.63;;;;;;;;;;5071327;28;20260;-71
2021/11/29 13:31:21;;;;;;;7.90;2.53;;;;;;;;;;5071237;28;20209;-71
2021/11/29 13:33:48;;;;;;;8.00;2.33;;;;;;;;;;5070492;28;20255;-71
2021/11/29 13:36:43;;;;;;;5.03;2.33;;;;;;;;;;5071789;28;20204;-71
2021/11/29 13:39:30;;;;;;;3.77;1.93;;;;;;;;;;5071450;28;20305;-72
2021/11/29 13:42:09;;;;;;;7.90;1.90;;;;;;;;;;5071263;28;20204;-71
2021/11/29 13:45:22;;;;;;;5.63;1.70;;;;;;;;;;5071646;28;20229;-71
2021/11/29 13:47:50;;;;;;;5.60;2.20;;;;;;;;;;5069111;28;20229;-72
2021/11/29 13:50:18;;;;;;;6.17;2.13;;;;;;;;;;5071587;28;20212;-71
2021/11/29 13:52:46;;;;;;;3.03;1.90;;;;;;;;;;5070558;28;20240;-71
2021/11/29 13:55:15;;;;;;;4.03;1.80;;;;;;;;;;5071202;28;20221;-71
2021/11/29 13:57:47;;;;;;;6.03;2.00;;;;;;;;;;5071252;28;20300;-71
2021/11/29 14:00:13;;;;;;;5.03;2.30;;;;;;;;;;5071047;28;20299;-71
2021/11/29 14:02:40;;;;;;;7.93;2.10;;;;;;;;;;5070668;28;20442;-71
2021/11/29 14:05:07;;;;;;;6.50;2.40;;;;;;;;;;5071119;28;20735;-72
2021/11/29 14:07:52;;;;;;;4.73;2.17;;;;;;;;;;5071117;28;20255;-71
2021/11/29 14:10:38;;;;;;;4.20;2.00;;;;;;;;;;5070929;28;20244;-72
2021/11/29 14:13:05;;;;;;;3.87;2.33;;;;;;;;;;5070546;28;20271;-72
2021/11/29 14:15:48;;;;;;;3.77;2.10;;;;;;;;;;5071085;28;20209;-71
2021/11/29 14:18:14;;;;;;;4.13;1.80;;;;;;;;;;5071255;28;20243;-71
2021/11/29 14:20:41;;;;;;;5.07;2.20;;;;;;;;;;5071125;28;20201;-71
2021/11/29 14:23:07;;;;;;;3.07;1.80;;;;;;;;;;5070170;28;20696;-71
2021/11/29 14:25:34;;;;;;;3.77;2.20;;;;;;;;;;5071517;28;20251;-71
2021/11/29 14:28:00;;;;;;;6.80;2.40;;;;;;;;;;5071278;28;20316;-71
2021/11/29 14:30:28;;;;;;;5.63;2.40;;;;;;;;;;5071112;28;20292;-71
2021/11/29 14:32:58;;;;;;;4.33;2.53;;;;;;;;;;5069973;28;20646;-71
2021/11/29 14:35:28;;;;;;;5.10;2.57;;;;;;;;;;5069427;28;20236;-71
2021/11/29 14:37:57;;;;;;;7.17;2.57;;;;;;;;;;5070637;28;20646;-71
2021/11/29 14:40:24;;;;;;;2.93;2.00;;;;;;;;;;5069683;28;20240;-72
2021/11/29 14:42:51;;;;;;;4.97;2.10;;;;;;;;;;5072255;28;20225;-71
2021/11/29 14:45:25;;;;;;;4.27;1.90;;;;;;;;;;5074255;28;20225;-71
2021/11/29 14:47:54;;;;;;;5.03;2.20;;;;;;;;;;5074210;28;20228;-71
2021/11/29 14:50:23;;;;;;;3.90;1.90;;;;;;;;;;5074093;28;20677;-71
2021/11/29 14:53:02;;;;;;;6.30;2.57;;;;;;;;;;5073665;28;20201;-72
2021/11/29 14:55:33;;;;;;;9.40;2.43;;;;;;;;;;5074277;28;20232;-71
2021/11/29 14:58:20;;;;;;;6.67;2.60;;;;;;;;;;5073939;28;20776;-71
2021/11/29 15:00:50;;;;;;;3.20;2.17;;;;;;;;;;5073768;28;20650;-71
2021/11/29 15:03:25;;;;;;;7.27;3.47;;;;;;;;;;5073564;28;20685;-71
2021/11/29 15:05:53;;;;;;;4.20;2.33;;;;;;;;;;5074047;28;20212;-71
2021/11/29 15:08:27;;;;;;;4.87;2.70;;;;;;;;;;5073646;28;20221;-71
2021/11/29 15:11:02;;;;;;;3.07;2.00;;;;;;;;;;5073674;28;20207;-71
2021/11/29 15:13:43;;;;;;;11.17;2.43;;;;;;;;;;5072868;28;20232;-71
2021/11/29 15:16:30;;;;;;;6.07;2.20;;;;;;;;;;5072348;28;20726;-71
2021/11/29 15:19:12;;;;;;;2.27;2.00;;;;;;;;;;5073847;28;20236;-71
2021/11/29 15:21:38;;;;;;;4.83;2.23;;;;;;;;;;5074016;28;20213;-71